createdAt,value
2023-03-29T00:00:49.619Z,3.19
2023-03-29T00:03:17.057Z,3.19
2023-03-29T00:05:44.766Z,3.19
2023-03-29T00:08:14.381Z,3.21
2023-03-29T00:10:41.793Z,3.27
2023-03-29T00:13:08.367Z,3.18
2023-03-29T00:15:34.710Z,3.14
2023-03-29T00:18:01.206Z,3.22
2023-03-29T00:20:28.732Z,3.19
2023-03-29T00:22:55.686Z,3.15
2023-03-29T00:25:22.217Z,3.21
2023-03-29T00:27:48.784Z,3.21
2023-03-29T00:30:15.864Z,3.16
2023-03-29T00:32:42.749Z,3.17
2023-03-29T00:35:09.788Z,3.22
2023-03-29T00:37:36.828Z,3.22
2023-03-29T00:40:10.972Z,3.17
2023-03-29T00:42:37.567Z,3.26
2023-03-29T00:45:25.508Z,3.22
2023-03-29T00:48:00.984Z,3.17
2023-03-29T00:50:41.783Z,3.23
2023-03-29T00:53:27.254Z,3.22
2023-03-29T00:55:59.528Z,3.18
2023-03-29T00:58:36.729Z,3.26
2023-03-29T01:01:10.846Z,3.22
2023-03-29T01:03:46.600Z,3.23
2023-03-29T01:06:16.004Z,3.30
2023-03-29T01:08:50.962Z,3.29
2023-03-29T01:11:22.379Z,3.27
2023-03-29T01:13:57.960Z,3.30
2023-03-29T01:16:26.470Z,3.29
2023-03-29T01:18:52.890Z,3.30
2023-03-29T01:21:25.007Z,3.31
2023-03-29T01:24:28.333Z,3.27
2023-03-29T01:27:10.698Z,3.36
2023-03-29T01:29:40.645Z,3.24
2023-03-29T01:32:16.298Z,3.27
2023-03-29T01:35:24.133Z,3.36
2023-03-29T01:38:01.265Z,3.39
2023-03-29T01:40:28.244Z,3.27
2023-03-29T01:43:06.131Z,3.29
2023-03-29T01:45:47.446Z,3.33
2023-03-29T01:48:28.228Z,3.24
2023-03-29T01:51:01.412Z,3.30
2023-03-29T01:53:45.307Z,3.32
2023-03-29T01:56:17.265Z,3.34
2023-03-29T01:58:51.143Z,3.32
2023-03-29T02:01:25.822Z,3.32
2023-03-29T02:03:55.802Z,3.35
2023-03-29T02:06:27.213Z,3.44
2023-03-29T02:08:55.724Z,3.47
2023-03-29T02:11:24.439Z,3.48
2023-03-29T02:13:50.975Z,3.48
2023-03-29T02:16:17.599Z,3.49
2023-03-29T02:18:47.761Z,3.49
2023-03-29T02:21:30.419Z,3.56
2023-03-29T02:24:02.046Z,3.57
2023-03-29T02:26:29.161Z,3.67
2023-03-29T02:28:56.029Z,3.70
2023-03-29T02:31:37.918Z,3.68
2023-03-29T02:34:13.228Z,3.64
2023-03-29T02:36:47.059Z,3.67
2023-03-29T02:39:15.704Z,3.68
2023-03-29T02:41:48.476Z,3.68
2023-03-29T02:44:20.368Z,3.68
2023-03-29T02:46:50.699Z,3.64
2023-03-29T02:49:17.128Z,3.64
2023-03-29T02:51:47.472Z,3.66
2023-03-29T02:54:19.396Z,3.66
2023-03-29T02:56:49.183Z,3.57
2023-03-29T02:59:19.351Z,3.58
2023-03-29T03:01:45.972Z,3.54
2023-03-29T03:04:13.072Z,3.66
2023-03-29T03:06:39.586Z,3.70
2023-03-29T03:09:06.692Z,3.68
2023-03-29T03:11:33.975Z,3.58
2023-03-29T03:14:00.875Z,3.58
2023-03-29T03:16:27.929Z,3.62
2023-03-29T03:18:55.492Z,3.61
2023-03-29T03:21:22.240Z,3.55
2023-03-29T03:23:49.283Z,3.52
2023-03-29T03:26:17.788Z,3.56
2023-03-29T03:28:45.572Z,3.59
2023-03-29T03:31:15.129Z,3.61
2023-03-29T03:33:41.764Z,3.52
2023-03-29T03:36:10.158Z,3.54
2023-03-29T03:38:38.387Z,3.55
2023-03-29T03:41:06.946Z,3.50
2023-03-29T03:43:34.169Z,3.53
2023-03-29T03:46:01.298Z,3.53
2023-03-29T03:48:28.413Z,3.59
2023-03-29T03:50:58.108Z,3.64
2023-03-29T03:53:27.133Z,3.60
2023-03-29T03:55:58.014Z,3.56
2023-03-29T03:58:24.477Z,3.55
2023-03-29T04:00:51.366Z,3.45
2023-03-29T04:03:18.601Z,3.66
2023-03-29T04:05:46.682Z,3.72
2023-03-29T04:08:14.779Z,3.63
2023-03-29T04:10:41.524Z,3.61
2023-03-29T04:13:08.305Z,3.71
2023-03-29T04:15:41.108Z,3.65
2023-03-29T04:18:07.737Z,3.66
2023-03-29T04:20:34.647Z,3.66
2023-03-29T04:23:01.706Z,3.71
2023-03-29T04:25:28.394Z,3.80
2023-03-29T04:27:54.898Z,3.82
2023-03-29T04:30:21.767Z,3.83
2023-03-29T04:32:48.167Z,3.85
2023-03-29T04:35:14.644Z,3.97
2023-03-29T04:37:41.712Z,4.02
2023-03-29T04:40:09.962Z,3.96
2023-03-29T04:42:37.634Z,3.96
2023-03-29T04:45:07.221Z,4.10
2023-03-29T04:47:36.257Z,4.02
2023-03-29T04:50:03.888Z,4.01
2023-03-29T04:52:33.025Z,4.03
2023-03-29T04:55:04.445Z,3.97
2023-03-29T04:57:31.424Z,3.98
2023-03-29T04:59:57.845Z,3.89
2023-03-29T05:02:24.352Z,3.89
2023-03-29T05:04:51.120Z,3.99
2023-03-29T05:07:18.188Z,3.95
2023-03-29T05:09:45.674Z,3.82
2023-03-29T05:12:12.072Z,3.70
2023-03-29T05:14:38.403Z,3.74
2023-03-29T05:17:05.102Z,3.71
2023-03-29T05:19:31.951Z,3.71
2023-03-29T05:21:59.053Z,3.75
2023-03-29T05:24:25.408Z,3.86
2023-03-29T05:26:51.978Z,3.83
2023-03-29T05:29:18.562Z,3.84
2023-03-29T05:31:44.933Z,3.90
2023-03-29T05:34:11.682Z,3.92
2023-03-29T05:36:39.076Z,4.05
2023-03-29T05:39:06.381Z,3.97
2023-03-29T05:41:33.617Z,3.93
2023-03-29T05:43:59.971Z,3.92
2023-03-29T05:46:26.924Z,3.87
2023-03-29T05:48:53.282Z,3.90
2023-03-29T05:51:24.044Z,3.94
2023-03-29T05:53:51.687Z,3.98
2023-03-29T05:56:18.925Z,3.97
2023-03-29T05:58:49.267Z,4.06
2023-03-29T06:01:18.014Z,4.20
2023-03-29T06:03:46.211Z,4.08
2023-03-29T06:06:16.040Z,4.13
2023-03-29T06:08:42.584Z,4.21
2023-03-29T06:11:11.026Z,4.13
2023-03-29T06:13:38.800Z,4.31
2023-03-29T06:16:06.231Z,4.25
2023-03-29T06:18:33.446Z,4.23
2023-03-29T06:21:02.036Z,4.20
2023-03-29T06:23:29.313Z,4.20
2023-03-29T06:25:56.468Z,4.24
2023-03-29T06:28:23.960Z,4.26
2023-03-29T06:30:50.635Z,4.21
2023-03-29T06:33:17.232Z,4.26
2023-03-29T06:35:46.012Z,4.44
2023-03-29T06:38:12.495Z,4.39
2023-03-29T06:40:38.994Z,4.43
2023-03-29T06:43:06.588Z,4.43
2023-03-29T06:45:36.283Z,4.56
2023-03-29T06:48:04.246Z,4.63
2023-03-29T06:50:31.191Z,4.70
2023-03-29T06:52:57.632Z,4.76
2023-03-29T06:55:25.894Z,4.83
2023-03-29T06:57:53.865Z,4.84
2023-03-29T07:00:29.829Z,4.90
2023-03-29T07:02:58.612Z,4.97
2023-03-29T07:05:28.167Z,4.94
2023-03-29T07:07:57.046Z,5.03
2023-03-29T07:10:32.177Z,5.12
2023-03-29T07:13:00.648Z,5.22
2023-03-29T07:15:28.706Z,5.29
2023-03-29T07:17:55.926Z,5.39
2023-03-29T07:20:23.328Z,5.54
2023-03-29T07:22:53.704Z,5.46
2023-03-29T07:25:22.353Z,5.61
2023-03-29T07:27:49.212Z,5.66
2023-03-29T07:30:18.339Z,5.65
2023-03-29T07:32:46.365Z,5.74
2023-03-29T07:35:14.899Z,5.79
2023-03-29T07:37:42.653Z,5.85
2023-03-29T07:40:12.787Z,5.88
2023-03-29T07:42:39.573Z,5.92
2023-03-29T07:45:08.425Z,6.01
2023-03-29T07:47:35.211Z,6.05
2023-03-29T07:50:02.420Z,6.07
2023-03-29T07:52:30.005Z,6.03
2023-03-29T07:54:56.922Z,6.16
2023-03-29T07:57:25.112Z,6.08
2023-03-29T07:59:53.996Z,6.09
2023-03-29T08:02:21.068Z,6.16
2023-03-29T08:04:47.726Z,6.29
2023-03-29T08:07:17.616Z,6.30
2023-03-29T08:09:45.463Z,6.40
2023-03-29T08:12:12.114Z,6.42
2023-03-29T08:14:38.520Z,6.54
2023-03-29T08:17:04.982Z,6.67
2023-03-29T08:19:31.542Z,6.75
2023-03-29T08:21:58.752Z,6.96
2023-03-29T08:24:25.297Z,7.15
2023-03-29T08:26:51.707Z,7.21
2023-03-29T08:29:18.037Z,7.31
2023-03-29T08:31:44.430Z,7.59
2023-03-29T08:34:10.901Z,7.78
2023-03-29T08:36:37.341Z,8.00
2023-03-29T08:39:03.770Z,8.06
2023-03-29T08:41:58.167Z,8.25
2023-03-29T08:44:50.736Z,8.26
2023-03-29T08:47:17.157Z,8.20
2023-03-29T08:49:48.568Z,8.11
2023-03-29T08:52:31.124Z,8.04
2023-03-29T08:54:59.743Z,8.04
2023-03-29T08:57:31.586Z,8.02
2023-03-29T09:00:01.884Z,8.01
2023-03-29T09:02:34.314Z,7.96
2023-03-29T09:05:14.857Z,8.05
2023-03-29T09:07:42.016Z,8.13
2023-03-29T09:10:15.240Z,8.31
2023-03-29T09:12:55.503Z,8.72
2023-03-29T09:15:27.613Z,8.92
2023-03-29T09:18:11.561Z,9.05
2023-03-29T09:20:56.997Z,9.23
2023-03-29T09:23:45.201Z,9.20
2023-03-29T09:26:19.737Z,8.99
2023-03-29T09:29:15.314Z,9.01
2023-03-29T09:31:44.149Z,8.85
2023-03-29T09:34:15.888Z,8.67
2023-03-29T09:36:52.356Z,8.67
2023-03-29T09:39:21.169Z,8.54
2023-03-29T09:41:54.592Z,8.57
2023-03-29T09:44:31.118Z,8.60
2023-03-29T09:47:12.430Z,8.52
2023-03-29T09:49:44.122Z,8.49
2023-03-29T09:52:14.044Z,8.54
2023-03-29T09:54:41.109Z,8.47
2023-03-29T09:57:12.047Z,8.44
2023-03-29T09:59:38.423Z,8.50
2023-03-29T10:02:11.042Z,8.58
2023-03-29T10:04:38.558Z,8.57
2023-03-29T10:07:07.687Z,8.58
2023-03-29T10:09:34.995Z,8.51
2023-03-29T10:12:06.595Z,8.55
2023-03-29T10:14:54.187Z,8.51
2023-03-29T10:17:25.722Z,8.65
2023-03-29T10:19:56.970Z,8.92
2023-03-29T10:22:26.384Z,8.96
2023-03-29T10:24:54.841Z,9.14
2023-03-29T10:27:27.233Z,9.36
2023-03-29T10:29:55.279Z,9.64
2023-03-29T10:32:21.550Z,9.94
2023-03-29T10:34:49.234Z,10.01
2023-03-29T10:37:19.385Z,10.18
2023-03-29T10:39:48.098Z,10.27
2023-03-29T10:42:23.663Z,10.40
2023-03-29T10:44:58.400Z,10.45
2023-03-29T10:47:25.929Z,10.60
2023-03-29T10:49:58.601Z,10.47
2023-03-29T10:52:25.740Z,10.60
2023-03-29T10:54:55.729Z,10.98
2023-03-29T10:58:01.614Z,11.13
2023-03-29T11:00:33.880Z,11.17
2023-03-29T11:03:09.723Z,11.18
2023-03-29T11:05:51.542Z,11.25
2023-03-29T11:08:36.573Z,11.38
2023-03-29T11:11:44.655Z,11.43
2023-03-29T11:14:46.102Z,11.57
2023-03-29T11:17:37.302Z,11.87
2023-03-29T11:20:12.886Z,12.03
2023-03-29T11:23:27.466Z,12.10
2023-03-29T11:26:19.796Z,12.24
2023-03-29T11:28:54.337Z,12.33
2023-03-29T11:31:46.387Z,12.27
2023-03-29T11:34:18.684Z,12.09
2023-03-29T11:37:11.028Z,12.22
2023-03-29T11:39:49.887Z,12.06
2023-03-29T11:42:24.732Z,11.79
2023-03-29T11:44:55.042Z,11.63
2023-03-29T11:47:26.509Z,11.54
2023-03-29T11:49:57.345Z,11.55
2023-03-29T11:52:30.464Z,11.71
2023-03-29T11:55:05.448Z,11.74
2023-03-29T11:57:39.871Z,11.67
2023-03-29T12:00:30.544Z,11.76
2023-03-29T12:02:56.896Z,11.98
2023-03-29T12:05:32.056Z,11.79
2023-03-29T12:08:21.967Z,11.63
2023-03-29T12:10:56.086Z,11.64
2023-03-29T12:13:37.828Z,11.54
2023-03-29T12:16:13.538Z,11.51
2023-03-29T12:18:45.319Z,11.63
2023-03-29T12:21:20.039Z,11.68
2023-03-29T12:23:47.713Z,11.64
2023-03-29T12:26:33.679Z,11.69
2023-03-29T12:29:05.365Z,11.77
2023-03-29T12:31:39.506Z,11.80
2023-03-29T12:34:24.541Z,11.91
2023-03-29T12:36:53.858Z,12.01
2023-03-29T12:39:21.504Z,11.94
2023-03-29T12:41:53.391Z,12.12
2023-03-29T12:44:23.857Z,12.13
2023-03-29T12:46:59.475Z,12.30
2023-03-29T12:49:35.434Z,12.31
2023-03-29T12:52:05.514Z,12.38
2023-03-29T12:54:32.969Z,12.39
2023-03-29T12:57:19.693Z,12.41
2023-03-29T12:59:48.522Z,12.39
2023-03-29T13:02:14.936Z,12.47
2023-03-29T13:04:53.931Z,12.50
2023-03-29T13:07:23.310Z,12.50
2023-03-29T13:10:17.620Z,12.60
2023-03-29T13:12:45.904Z,12.69
2023-03-29T13:15:15.580Z,12.83
2023-03-29T13:17:46.587Z,12.87
2023-03-29T13:20:37.397Z,12.93
2023-03-29T13:23:17.763Z,13.04
2023-03-29T13:25:53.578Z,13.12
2023-03-29T13:28:33.677Z,13.10
2023-03-29T13:31:18.153Z,13.09
2023-03-29T13:34:02.894Z,13.05
2023-03-29T13:36:51.081Z,13.01
2023-03-29T13:39:29.354Z,12.98
2023-03-29T13:42:37.295Z,12.97
2023-03-29T13:45:22.224Z,13.02
2023-03-29T13:48:02.417Z,13.01
2023-03-29T13:50:39.510Z,13.01
2023-03-29T13:53:45.633Z,12.99
2023-03-29T13:56:18.801Z,12.98
2023-03-29T13:58:49.881Z,13.19
2023-03-29T14:01:25.831Z,13.15
2023-03-29T14:03:53.522Z,13.19
2023-03-29T14:06:36.528Z,13.23
2023-03-29T14:09:08.677Z,13.36
2023-03-29T14:11:36.428Z,13.36
2023-03-29T14:14:08.212Z,13.39
2023-03-29T14:16:37.259Z,13.55
2023-03-29T14:19:11.678Z,13.55
2023-03-29T14:21:38.049Z,13.51
2023-03-29T14:24:04.481Z,13.48
2023-03-29T14:26:35.815Z,13.55
2023-03-29T14:29:02.791Z,13.56
2023-03-29T14:31:36.074Z,13.57
2023-03-29T14:34:05.907Z,13.43
2023-03-29T14:36:33.574Z,13.54
2023-03-29T14:39:04.104Z,13.68
2023-03-29T14:41:32.488Z,13.68
2023-03-29T14:44:00.148Z,13.73
2023-03-29T14:46:27.364Z,13.68
2023-03-29T14:48:54.827Z,13.78
2023-03-29T14:51:23.252Z,13.65
2023-03-29T14:53:49.892Z,13.57
2023-03-29T14:56:18.120Z,13.53
2023-03-29T14:58:46.553Z,13.67
2023-03-29T15:01:17.570Z,13.63
2023-03-29T15:03:49.782Z,13.73
2023-03-29T15:06:16.915Z,13.82
2023-03-29T15:08:57.701Z,13.77
2023-03-29T15:11:29.643Z,13.76
2023-03-29T15:14:15.812Z,13.69
2023-03-29T15:16:45.470Z,13.64
2023-03-29T15:19:20.343Z,13.55
2023-03-29T15:21:50.766Z,13.53
2023-03-29T15:24:27.444Z,13.52
2023-03-29T15:27:11.313Z,13.40
2023-03-29T15:29:46.286Z,13.37
2023-03-29T15:32:24.934Z,13.19
2023-03-29T15:34:59.447Z,13.04
2023-03-29T15:37:26.209Z,13.10
2023-03-29T15:39:52.631Z,12.89
2023-03-29T15:42:19.117Z,12.94
2023-03-29T15:44:45.859Z,12.77
2023-03-29T15:47:13.297Z,12.81
2023-03-29T15:49:39.906Z,12.85
2023-03-29T15:52:06.305Z,12.85
2023-03-29T15:54:33.681Z,12.76
2023-03-29T15:57:07.127Z,12.72
2023-03-29T15:59:34.788Z,12.62
2023-03-29T16:02:01.225Z,12.59
2023-03-29T16:04:27.606Z,12.55
2023-03-29T16:06:55.703Z,12.54
2023-03-29T16:09:22.748Z,12.54
2023-03-29T16:11:49.823Z,12.46
2023-03-29T16:14:27.836Z,12.45
2023-03-29T16:16:58.182Z,12.40
2023-03-29T16:19:25.674Z,12.33
2023-03-29T16:21:53.086Z,12.45
2023-03-29T16:24:25.024Z,12.41
2023-03-29T16:26:55.696Z,12.32
2023-03-29T16:29:22.906Z,12.28
2023-03-29T16:31:50.401Z,12.31
2023-03-29T16:34:18.654Z,12.24
2023-03-29T16:36:46.524Z,12.19
2023-03-29T16:39:13.619Z,12.20
2023-03-29T16:41:41.319Z,12.26
2023-03-29T16:44:07.820Z,12.26
2023-03-29T16:46:34.605Z,12.23
2023-03-29T16:49:01.506Z,12.22
2023-03-29T16:51:27.858Z,12.12
2023-03-29T16:53:54.373Z,12.14
2023-03-29T16:56:20.703Z,12.06
2023-03-29T16:58:47.447Z,12.11
2023-03-29T17:01:15.932Z,12.03
2023-03-29T17:03:43.141Z,12.04
2023-03-29T17:06:11.056Z,11.95
2023-03-29T17:08:38.593Z,11.94
2023-03-29T17:11:06.796Z,11.87
2023-03-29T17:13:33.381Z,11.80
2023-03-29T17:16:00.131Z,11.72
2023-03-29T17:18:27.666Z,11.72
2023-03-29T17:20:58.416Z,11.74
2023-03-29T17:23:25.439Z,11.62
2023-03-29T17:25:53.969Z,11.52
2023-03-29T17:28:20.502Z,11.61
2023-03-29T17:30:46.870Z,11.74
2023-03-29T17:33:13.604Z,11.61
2023-03-29T17:35:46.460Z,11.72
2023-03-29T17:38:12.824Z,11.67
2023-03-29T17:40:39.233Z,11.58
2023-03-29T17:43:05.658Z,11.59
2023-03-29T17:45:32.241Z,11.49
2023-03-29T17:47:58.623Z,11.43
2023-03-29T17:50:25.604Z,11.36
2023-03-29T17:52:51.944Z,11.28
2023-03-29T17:55:18.675Z,11.31
2023-03-29T17:57:45.110Z,11.24
2023-03-29T18:00:13.680Z,11.26
2023-03-29T18:02:41.403Z,11.26
2023-03-29T18:05:09.386Z,11.29
2023-03-29T18:07:36.728Z,11.47
2023-03-29T18:10:03.892Z,11.35
2023-03-29T18:12:30.349Z,11.29
2023-03-29T18:14:56.958Z,11.25
2023-03-29T18:17:24.452Z,11.24
2023-03-29T18:19:51.416Z,11.21
2023-03-29T18:22:18.541Z,11.21
2023-03-29T18:24:44.980Z,11.17
2023-03-29T18:27:12.190Z,11.16
2023-03-29T18:29:39.018Z,11.16
2023-03-29T18:32:06.018Z,11.15
2023-03-29T18:34:33.347Z,11.11
2023-03-29T18:36:59.677Z,11.01
2023-03-29T18:39:27.218Z,11.00
2023-03-29T18:41:53.683Z,11.03
2023-03-29T18:44:21.795Z,11.07
2023-03-29T18:46:48.317Z,11.06
2023-03-29T18:49:14.680Z,10.91
2023-03-29T18:51:42.077Z,10.89
2023-03-29T18:54:08.946Z,10.88
2023-03-29T18:56:35.870Z,10.82
2023-03-29T18:59:06.037Z,10.81
2023-03-29T19:01:33.158Z,10.81
2023-03-29T19:03:59.593Z,11.01
2023-03-29T19:06:26.378Z,10.91
2023-03-29T19:08:53.982Z,10.99
2023-03-29T19:11:20.374Z,10.93
2023-03-29T19:13:50.078Z,10.74
2023-03-29T19:16:17.194Z,10.67
2023-03-29T19:18:43.642Z,10.60
2023-03-29T19:21:10.045Z,10.66
2023-03-29T19:23:36.544Z,10.58
2023-03-29T19:26:05.475Z,10.58
2023-03-29T19:28:33.428Z,10.54
2023-03-29T19:31:01.360Z,10.49
2023-03-29T19:33:29.095Z,10.45
2023-03-29T19:35:55.616Z,10.43
2023-03-29T19:38:22.352Z,10.75
2023-03-29T19:40:50.741Z,10.77
2023-03-29T19:43:17.964Z,10.63
2023-03-29T19:45:45.515Z,10.55
2023-03-29T19:48:21.142Z,10.50
2023-03-29T19:50:48.527Z,10.52
2023-03-29T19:53:14.962Z,10.42
2023-03-29T19:55:42.815Z,10.57
2023-03-29T19:58:09.389Z,10.67
2023-03-29T20:00:36.027Z,10.56
2023-03-29T20:03:03.022Z,10.78
2023-03-29T20:05:29.417Z,10.65
2023-03-29T20:07:56.082Z,10.74
2023-03-29T20:10:22.525Z,10.61
2023-03-29T20:12:49.224Z,10.78
2023-03-29T20:15:15.724Z,10.57
2023-03-29T20:17:42.184Z,10.39
2023-03-29T20:20:10.196Z,10.29
2023-03-29T20:22:38.078Z,10.46
2023-03-29T20:25:05.278Z,10.43
2023-03-29T20:27:31.668Z,10.30
2023-03-29T20:29:58.031Z,10.25
2023-03-29T20:32:24.378Z,10.19
2023-03-29T20:34:50.887Z,10.12
2023-03-29T20:37:17.232Z,10.11
2023-03-29T20:39:43.658Z,10.13
2023-03-29T20:42:10.134Z,10.13
2023-03-29T20:44:36.591Z,10.15
2023-03-29T20:47:07.899Z,10.07
2023-03-29T20:49:39.112Z,10.32
2023-03-29T20:52:07.967Z,10.25
2023-03-29T20:54:36.945Z,10.13
2023-03-29T20:57:04.708Z,10.20
2023-03-29T20:59:31.284Z,10.13
2023-03-29T21:01:58.199Z,10.03
2023-03-29T21:04:24.790Z,10.30
2023-03-29T21:06:51.331Z,10.20
2023-03-29T21:09:19.189Z,10.09
2023-03-29T21:11:45.630Z,10.21
2023-03-29T21:14:11.979Z,10.15
2023-03-29T21:16:41.601Z,10.07
2023-03-29T21:19:09.366Z,10.18
2023-03-29T21:21:35.966Z,10.11
2023-03-29T21:24:03.545Z,10.06
2023-03-29T21:26:30.078Z,10.08
2023-03-29T21:28:56.521Z,10.03
2023-03-29T21:31:22.999Z,10.03
2023-03-29T21:33:49.526Z,10.13
2023-03-29T21:36:16.116Z,10.10
2023-03-29T21:38:42.521Z,9.95
2023-03-29T21:41:10.643Z,9.93
2023-03-29T21:43:36.988Z,9.89
2023-03-29T21:46:03.671Z,9.85
2023-03-29T21:48:30.832Z,9.82
2023-03-29T21:50:57.374Z,9.75
2023-03-29T21:53:24.728Z,9.76
2023-03-29T21:55:51.742Z,9.66
2023-03-29T21:58:18.802Z,9.74
2023-03-29T22:00:46.661Z,9.65
2023-03-29T22:03:14.909Z,9.69
2023-03-29T22:05:41.875Z,9.74
2023-03-29T22:08:10.519Z,9.71
2023-03-29T22:10:41.114Z,9.76
2023-03-29T22:13:08.668Z,9.78
2023-03-29T22:15:35.567Z,9.80
2023-03-29T22:18:03.120Z,9.67
2023-03-29T22:20:29.570Z,9.66
2023-03-29T22:22:55.929Z,9.67
2023-03-29T22:25:23.167Z,9.70
2023-03-29T22:27:49.874Z,9.63
2023-03-29T22:30:17.249Z,9.59
2023-03-29T22:32:43.706Z,9.74
2023-03-29T22:35:10.550Z,9.78
2023-03-29T22:37:41.871Z,9.73
2023-03-29T22:40:10.292Z,9.85
2023-03-29T22:42:36.862Z,9.83
2023-03-29T22:45:03.909Z,9.84
2023-03-29T22:47:30.317Z,9.89
2023-03-29T22:49:56.663Z,9.80
2023-03-29T22:52:23.017Z,9.83
2023-03-29T22:54:49.362Z,9.96
2023-03-29T22:57:15.761Z,10.00
2023-03-29T22:59:42.217Z,9.92
2023-03-29T23:02:08.571Z,9.89
2023-03-29T23:04:36.498Z,9.90
2023-03-29T23:07:02.929Z,9.88
2023-03-29T23:09:29.265Z,9.79
2023-03-29T23:11:55.671Z,9.95
2023-03-29T23:14:22.675Z,9.96
2023-03-29T23:16:50.373Z,9.91
2023-03-29T23:19:16.708Z,9.83
2023-03-29T23:21:43.105Z,9.87
2023-03-29T23:24:09.493Z,9.87
2023-03-29T23:26:37.509Z,9.87
2023-03-29T23:29:04.041Z,9.93
2023-03-29T23:31:30.522Z,9.84
2023-03-29T23:33:56.916Z,9.78
2023-03-29T23:36:23.372Z,9.68
2023-03-29T23:38:49.996Z,9.60
2023-03-29T23:41:17.654Z,9.64
2023-03-29T23:43:46.917Z,9.67
2023-03-29T23:46:15.781Z,9.67
2023-03-29T23:48:47.076Z,9.58
2023-03-29T23:51:13.528Z,9.58
2023-03-29T23:53:40.300Z,9.57
2023-03-29T23:56:07.683Z,9.64
2023-03-29T23:58:36.827Z,9.66
